sensor_id;sensor_type;location;lat;lon;timestamp;P1;durP1;ratioP1;P2;durP2;ratioP2
31594;SDS011;18200;48.726;8.892;2023-04-21T00:02:39;35.13;;;18.75;;
31594;SDS011;18200;48.726;8.892;2023-04-21T00:06:40;34.10;;;18.85;;
31594;SDS011;18200;48.726;8.892;2023-04-21T00:10:40;37.25;;;20.02;;
31594;SDS011;18200;48.726;8.892;2023-04-21T00:14:41;84.10;;;23.13;;
31594;SDS011;18200;48.726;8.892;2023-04-21T00:18:41;72.97;;;22.73;;
31594;SDS011;18200;48.726;8.892;2023-04-21T00:22:42;134.88;;;24.33;;
31594;SDS011;18200;48.726;8.892;2023-04-21T00:26:42;48.20;;;21.65;;
31594;SDS011;18200;48.726;8.892;2023-04-21T00:30:43;152.77;;;24.83;;
31594;SDS011;18200;48.726;8.892;2023-04-21T00:34:43;111.30;;;24.92;;
31594;SDS011;18200;48.726;8.892;2023-04-21T00:38:45;60.22;;;23.25;;
31594;SDS011;18200;48.726;8.892;2023-04-21T00:42:48;60.85;;;20.73;;
31594;SDS011;18200;48.726;8.892;2023-04-21T00:46:48;55.08;;;22.02;;
31594;SDS011;18200;48.726;8.892;2023-04-21T00:50:48;41.30;;;20.83;;
31594;SDS011;18200;48.726;8.892;2023-04-21T00:54:49;90.68;;;23.30;;
31594;SDS011;18200;48.726;8.892;2023-04-21T00:58:49;182.35;;;25.60;;
31594;SDS011;18200;48.726;8.892;2023-04-21T01:02:50;92.47;;;21.38;;
31594;SDS011;18200;48.726;8.892;2023-04-21T01:06:50;193.65;;;25.23;;
31594;SDS011;18200;48.726;8.892;2023-04-21T01:10:51;303.33;;;28.65;;
31594;SDS011;18200;48.726;8.892;2023-04-21T01:14:51;53.88;;;19.75;;
31594;SDS011;18200;48.726;8.892;2023-04-21T01:18:52;309.05;;;29.33;;
31594;SDS011;18200;48.726;8.892;2023-04-21T01:22:52;31.55;;;19.63;;
31594;SDS011;18200;48.726;8.892;2023-04-21T01:26:52;49.08;;;20.27;;
31594;SDS011;18200;48.726;8.892;2023-04-21T01:30:54;347.52;;;28.98;;
31594;SDS011;18200;48.726;8.892;2023-04-21T01:34:56;129.43;;;22.75;;
31594;SDS011;18200;48.726;8.892;2023-04-21T01:38:57;198.73;;;24.25;;
31594;SDS011;18200;48.726;8.892;2023-04-21T01:42:57;128.30;;;22.52;;
31594;SDS011;18200;48.726;8.892;2023-04-21T01:46:58;140.43;;;23.00;;
31594;SDS011;18200;48.726;8.892;2023-04-21T01:50:58;49.60;;;19.42;;
31594;SDS011;18200;48.726;8.892;2023-04-21T01:54:59;173.43;;;24.13;;
31594;SDS011;18200;48.726;8.892;2023-04-21T01:59:00;35.15;;;18.83;;
31594;SDS011;18200;48.726;8.892;2023-04-21T02:03:01;45.60;;;20.83;;
31594;SDS011;18200;48.726;8.892;2023-04-21T02:07:02;33.15;;;19.42;;
31594;SDS011;18200;48.726;8.892;2023-04-21T02:11:02;41.10;;;20.27;;
31594;SDS011;18200;48.726;8.892;2023-04-21T02:15:03;41.30;;;20.85;;
31594;SDS011;18200;48.726;8.892;2023-04-21T02:19:04;44.65;;;20.42;;
31594;SDS011;18200;48.726;8.892;2023-04-21T02:23:06;123.68;;;20.83;;
31594;SDS011;18200;48.726;8.892;2023-04-21T02:27:06;91.03;;;19.30;;
31594;SDS011;18200;48.726;8.892;2023-04-21T02:31:07;55.63;;;19.23;;
31594;SDS011;18200;48.726;8.892;2023-04-21T02:35:07;35.00;;;16.20;;
31594;SDS011;18200;48.726;8.892;2023-04-21T02:39:08;50.15;;;19.80;;
31594;SDS011;18200;48.726;8.892;2023-04-21T02:43:08;29.35;;;18.08;;
31594;SDS011;18200;48.726;8.892;2023-04-21T02:47:09;38.78;;;18.52;;
31594;SDS011;18200;48.726;8.892;2023-04-21T02:51:13;60.88;;;18.80;;
31594;SDS011;18200;48.726;8.892;2023-04-21T02:55:14;129.60;;;20.98;;
31594;SDS011;18200;48.726;8.892;2023-04-21T02:59:15;129.93;;;19.20;;
31594;SDS011;18200;48.726;8.892;2023-04-21T03:03:15;31.15;;;15.80;;
31594;SDS011;18200;48.726;8.892;2023-04-21T03:07:16;27.33;;;16.38;;
31594;SDS011;18200;48.726;8.892;2023-04-21T03:11:16;34.20;;;16.05;;
31594;SDS011;18200;48.726;8.892;2023-04-21T03:15:16;31.88;;;18.17;;
31594;SDS011;18200;48.726;8.892;2023-04-21T03:19:18;36.65;;;16.65;;
31594;SDS011;18200;48.726;8.892;2023-04-21T03:23:18;71.28;;;18.33;;
31594;SDS011;18200;48.726;8.892;2023-04-21T03:27:19;66.03;;;17.05;;
31594;SDS011;18200;48.726;8.892;2023-04-21T03:31:19;36.45;;;16.65;;
31594;SDS011;18200;48.726;8.892;2023-04-21T03:35:20;89.78;;;18.27;;
31594;SDS011;18200;48.726;8.892;2023-04-21T03:39:21;109.68;;;17.83;;
31594;SDS011;18200;48.726;8.892;2023-04-21T03:43:23;65.05;;;16.20;;
31594;SDS011;18200;48.726;8.892;2023-04-21T03:47:23;111.80;;;18.60;;
31594;SDS011;18200;48.726;8.892;2023-04-21T03:51:25;89.13;;;17.40;;
31594;SDS011;18200;48.726;8.892;2023-04-21T03:55:26;44.08;;;17.08;;
31594;SDS011;18200;48.726;8.892;2023-04-21T03:59:26;74.35;;;17.48;;
31594;SDS011;18200;48.726;8.892;2023-04-21T04:03:27;60.20;;;16.30;;
31594;SDS011;18200;48.726;8.892;2023-04-21T04:07:27;69.07;;;16.80;;
31594;SDS011;18200;48.726;8.892;2023-04-21T04:11:27;68.18;;;17.58;;
31594;SDS011;18200;48.726;8.892;2023-04-21T04:15:28;71.45;;;18.02;;
31594;SDS011;18200;48.726;8.892;2023-04-21T04:19:29;46.33;;;18.45;;
31594;SDS011;18200;48.726;8.892;2023-04-21T04:23:30;49.65;;;18.42;;
31594;SDS011;18200;48.726;8.892;2023-04-21T04:27:30;49.35;;;19.33;;
31594;SDS011;18200;48.726;8.892;2023-04-21T04:31:31;43.70;;;20.33;;
31594;SDS011;18200;48.726;8.892;2023-04-21T04:35:31;41.33;;;18.90;;
31594;SDS011;18200;48.726;8.892;2023-04-21T04:39:32;36.13;;;18.92;;
31594;SDS011;18200;48.726;8.892;2023-04-21T04:43:32;61.47;;;22.33;;
31594;SDS011;18200;48.726;8.892;2023-04-21T04:47:33;43.22;;;21.02;;
31594;SDS011;18200;48.726;8.892;2023-04-21T04:51:34;37.65;;;19.23;;
31594;SDS011;18200;48.726;8.892;2023-04-21T04:55:34;35.15;;;18.80;;
31594;SDS011;18200;48.726;8.892;2023-04-21T04:59:35;38.40;;;19.13;;
31594;SDS011;18200;48.726;8.892;2023-04-21T05:03:36;39.72;;;18.45;;
31594;SDS011;18200;48.726;8.892;2023-04-21T05:07:36;36.58;;;18.73;;
31594;SDS011;18200;48.726;8.892;2023-04-21T05:11:36;39.17;;;20.38;;
31594;SDS011;18200;48.726;8.892;2023-04-21T05:15:37;42.40;;;20.45;;
31594;SDS011;18200;48.726;8.892;2023-04-21T05:19:37;37.90;;;20.35;;
31594;SDS011;18200;48.726;8.892;2023-04-21T05:23:37;46.78;;;20.45;;
31594;SDS011;18200;48.726;8.892;2023-04-21T05:27:38;38.78;;;18.67;;
31594;SDS011;18200;48.726;8.892;2023-04-21T05:31:38;38.67;;;17.65;;
31594;SDS011;18200;48.726;8.892;2023-04-21T05:35:39;35.80;;;18.83;;
31594;SDS011;18200;48.726;8.892;2023-04-21T05:39:39;46.03;;;20.85;;
31594;SDS011;18200;48.726;8.892;2023-04-21T05:43:39;41.95;;;21.20;;
31594;SDS011;18200;48.726;8.892;2023-04-21T05:47:40;35.15;;;18.10;;
31594;SDS011;18200;48.726;8.892;2023-04-21T05:51:40;35.38;;;18.42;;
31594;SDS011;18200;48.726;8.892;2023-04-21T05:55:40;41.65;;;19.27;;
31594;SDS011;18200;48.726;8.892;2023-04-21T05:59:41;33.88;;;19.77;;
31594;SDS011;18200;48.726;8.892;2023-04-21T06:03:42;31.50;;;17.25;;
31594;SDS011;18200;48.726;8.892;2023-04-21T06:07:43;31.05;;;16.65;;
31594;SDS011;18200;48.726;8.892;2023-04-21T06:11:43;29.65;;;16.73;;
31594;SDS011;18200;48.726;8.892;2023-04-21T06:15:44;26.67;;;15.57;;
31594;SDS011;18200;48.726;8.892;2023-04-21T06:19:44;31.80;;;16.33;;
31594;SDS011;18200;48.726;8.892;2023-04-21T06:23:44;30.40;;;16.73;;
31594;SDS011;18200;48.726;8.892;2023-04-21T06:27:45;28.70;;;15.00;;
31594;SDS011;18200;48.726;8.892;2023-04-21T06:31:45;24.65;;;14.57;;
31594;SDS011;18200;48.726;8.892;2023-04-21T06:35:46;30.15;;;15.88;;
31594;SDS011;18200;48.726;8.892;2023-04-21T06:39:46;26.83;;;15.15;;
31594;SDS011;18200;48.726;8.892;2023-04-21T06:43:47;28.50;;;15.93;;
31594;SDS011;18200;48.726;8.892;2023-04-21T06:47:47;25.30;;;14.68;;
31594;SDS011;18200;48.726;8.892;2023-04-21T06:51:47;26.77;;;16.15;;
31594;SDS011;18200;48.726;8.892;2023-04-21T06:55:48;29.70;;;17.02;;
31594;SDS011;18200;48.726;8.892;2023-04-21T06:59:48;31.17;;;18.05;;
31594;SDS011;18200;48.726;8.892;2023-04-21T07:03:49;28.15;;;16.65;;
31594;SDS011;18200;48.726;8.892;2023-04-21T07:07:50;27.30;;;15.20;;
31594;SDS011;18200;48.726;8.892;2023-04-21T07:11:50;24.00;;;14.05;;
31594;SDS011;18200;48.726;8.892;2023-04-21T07:15:50;23.00;;;12.85;;
31594;SDS011;18200;48.726;8.892;2023-04-21T07:19:51;25.13;;;13.38;;
31594;SDS011;18200;48.726;8.892;2023-04-21T07:23:52;22.75;;;13.18;;
31594;SDS011;18200;48.726;8.892;2023-04-21T07:27:52;22.55;;;13.25;;
31594;SDS011;18200;48.726;8.892;2023-04-21T07:31:53;24.00;;;14.63;;
31594;SDS011;18200;48.726;8.892;2023-04-21T07:35:55;29.73;;;15.15;;
31594;SDS011;18200;48.726;8.892;2023-04-21T07:39:55;26.95;;;15.70;;
31594;SDS011;18200;48.726;8.892;2023-04-21T07:43:56;28.05;;;16.50;;
31594;SDS011;18200;48.726;8.892;2023-04-21T07:47:56;28.25;;;16.80;;
31594;SDS011;18200;48.726;8.892;2023-04-21T07:52:02;29.85;;;17.25;;
31594;SDS011;18200;48.726;8.892;2023-04-21T07:56:03;31.55;;;18.13;;
31594;SDS011;18200;48.726;8.892;2023-04-21T08:00:04;28.23;;;17.23;;
31594;SDS011;18200;48.726;8.892;2023-04-21T08:04:12;42.25;;;19.90;;
31594;SDS011;18200;48.726;8.892;2023-04-21T08:08:12;33.25;;;18.38;;
31594;SDS011;18200;48.726;8.892;2023-04-21T08:12:13;33.03;;;19.25;;
31594;SDS011;18200;48.726;8.892;2023-04-21T08:16:14;29.67;;;16.80;;
31594;SDS011;18200;48.726;8.892;2023-04-21T08:20:14;25.42;;;15.43;;
31594;SDS011;18200;48.726;8.892;2023-04-21T08:24:14;25.48;;;16.10;;
31594;SDS011;18200;48.726;8.892;2023-04-21T08:28:15;28.00;;;15.75;;
31594;SDS011;18200;48.726;8.892;2023-04-21T08:32:15;21.60;;;13.40;;
31594;SDS011;18200;48.726;8.892;2023-04-21T08:36:22;22.10;;;13.55;;
31594;SDS011;18200;48.726;8.892;2023-04-21T08:40:25;18.38;;;11.93;;
31594;SDS011;18200;48.726;8.892;2023-04-21T08:44:31;20.20;;;12.88;;
31594;SDS011;18200;48.726;8.892;2023-04-21T08:48:35;17.50;;;9.60;;
31594;SDS011;18200;48.726;8.892;2023-04-21T08:52:37;12.82;;;8.07;;
31594;SDS011;18200;48.726;8.892;2023-04-21T08:56:38;16.52;;;10.43;;
31594;SDS011;18200;48.726;8.892;2023-04-21T09:00:39;15.10;;;8.52;;
31594;SDS011;18200;48.726;8.892;2023-04-21T09:04:44;13.98;;;9.50;;
31594;SDS011;18200;48.726;8.892;2023-04-21T09:08:53;17.42;;;10.73;;
31594;SDS011;18200;48.726;8.892;2023-04-21T09:12:56;20.35;;;12.88;;
31594;SDS011;18200;48.726;8.892;2023-04-21T09:17:03;19.35;;;12.20;;
31594;SDS011;18200;48.726;8.892;2023-04-21T09:21:05;17.98;;;11.73;;
31594;SDS011;18200;48.726;8.892;2023-04-21T09:25:08;20.15;;;11.63;;
31594;SDS011;18200;48.726;8.892;2023-04-21T09:29:08;17.90;;;11.23;;
31594;SDS011;18200;48.726;8.892;2023-04-21T09:33:16;14.93;;;9.40;;
31594;SDS011;18200;48.726;8.892;2023-04-21T09:37:19;15.00;;;9.68;;
31594;SDS011;18200;48.726;8.892;2023-04-21T09:41:23;14.93;;;8.67;;
31594;SDS011;18200;48.726;8.892;2023-04-21T09:45:27;11.68;;;7.47;;
31594;SDS011;18200;48.726;8.892;2023-04-21T09:49:34;15.05;;;8.23;;
31594;SDS011;18200;48.726;8.892;2023-04-21T09:53:35;11.43;;;6.88;;
31594;SDS011;18200;48.726;8.892;2023-04-21T09:57:40;11.40;;;7.13;;
31594;SDS011;18200;48.726;8.892;2023-04-21T10:01:42;10.65;;;6.78;;
31594;SDS011;18200;48.726;8.892;2023-04-21T10:05:43;10.93;;;6.85;;
31594;SDS011;18200;48.726;8.892;2023-04-21T10:09:45;12.05;;;7.05;;
31594;SDS011;18200;48.726;8.892;2023-04-21T10:13:49;10.55;;;6.60;;
31594;SDS011;18200;48.726;8.892;2023-04-21T10:17:50;10.95;;;7.57;;
31594;SDS011;18200;48.726;8.892;2023-04-21T10:21:50;9.90;;;6.95;;
31594;SDS011;18200;48.726;8.892;2023-04-21T10:25:50;11.10;;;7.07;;
31594;SDS011;18200;48.726;8.892;2023-04-21T10:29:51;11.30;;;6.43;;
31594;SDS011;18200;48.726;8.892;2023-04-21T10:38:05;9.18;;;6.45;;
31594;SDS011;18200;48.726;8.892;2023-04-21T10:50:33;8.95;;;6.20;;
31594;SDS011;18200;48.726;8.892;2023-04-21T10:54:40;8.07;;;5.57;;
31594;SDS011;18200;48.726;8.892;2023-04-21T10:58:47;9.70;;;6.50;;
31594;SDS011;18200;48.726;8.892;2023-04-21T11:02:52;11.85;;;6.70;;
31594;SDS011;18200;48.726;8.892;2023-04-21T11:07:11;8.52;;;5.65;;
31594;SDS011;18200;48.726;8.892;2023-04-21T11:11:13;7.45;;;5.28;;
31594;SDS011;18200;48.726;8.892;2023-04-21T11:15:22;6.95;;;4.70;;
31594;SDS011;18200;48.726;8.892;2023-04-21T11:19:22;9.18;;;5.72;;
31594;SDS011;18200;48.726;8.892;2023-04-21T11:23:25;10.13;;;5.60;;
31594;SDS011;18200;48.726;8.892;2023-04-21T11:27:26;7.78;;;5.55;;
31594;SDS011;18200;48.726;8.892;2023-04-21T11:31:29;13.52;;;7.50;;
31594;SDS011;18200;48.726;8.892;2023-04-21T11:35:30;7.25;;;4.72;;
31594;SDS011;18200;48.726;8.892;2023-04-21T11:39:30;6.60;;;5.20;;
31594;SDS011;18200;48.726;8.892;2023-04-21T11:43:31;9.00;;;5.75;;
31594;SDS011;18200;48.726;8.892;2023-04-21T11:47:31;7.47;;;5.38;;
31594;SDS011;18200;48.726;8.892;2023-04-21T11:51:37;6.57;;;4.60;;
31594;SDS011;18200;48.726;8.892;2023-04-21T11:55:41;6.97;;;4.70;;
31594;SDS011;18200;48.726;8.892;2023-04-21T11:59:43;5.72;;;4.32;;
31594;SDS011;18200;48.726;8.892;2023-04-21T12:03:54;8.70;;;4.82;;
31594;SDS011;18200;48.726;8.892;2023-04-21T12:07:55;10.43;;;5.00;;
31594;SDS011;18200;48.726;8.892;2023-04-21T12:11:56;8.00;;;5.00;;
31594;SDS011;18200;48.726;8.892;2023-04-21T12:16:00;7.43;;;4.82;;
31594;SDS011;18200;48.726;8.892;2023-04-21T12:20:05;7.32;;;5.55;;
31594;SDS011;18200;48.726;8.892;2023-04-21T12:24:06;9.45;;;6.25;;
31594;SDS011;18200;48.726;8.892;2023-04-21T12:28:07;9.68;;;6.32;;
31594;SDS011;18200;48.726;8.892;2023-04-21T12:32:08;7.22;;;5.30;;
31594;SDS011;18200;48.726;8.892;2023-04-21T12:36:08;9.23;;;6.10;;
31594;SDS011;18200;48.726;8.892;2023-04-21T12:40:09;9.85;;;7.00;;
31594;SDS011;18200;48.726;8.892;2023-04-21T12:44:09;8.73;;;6.15;;
31594;SDS011;18200;48.726;8.892;2023-04-21T12:48:10;9.55;;;6.53;;
31594;SDS011;18200;48.726;8.892;2023-04-21T12:52:11;9.50;;;6.82;;
31594;SDS011;18200;48.726;8.892;2023-04-21T12:56:11;7.68;;;4.82;;
31594;SDS011;18200;48.726;8.892;2023-04-21T13:00:12;7.05;;;4.78;;
31594;SDS011;18200;48.726;8.892;2023-04-21T13:04:13;5.95;;;4.63;;
31594;SDS011;18200;48.726;8.892;2023-04-21T13:08:14;7.60;;;5.38;;
31594;SDS011;18200;48.726;8.892;2023-04-21T13:12:15;8.52;;;5.68;;
31594;SDS011;18200;48.726;8.892;2023-04-21T13:16:16;9.00;;;6.35;;
31594;SDS011;18200;48.726;8.892;2023-04-21T13:20:16;9.20;;;5.70;;
31594;SDS011;18200;48.726;8.892;2023-04-21T13:24:18;8.88;;;5.78;;
31594;SDS011;18200;48.726;8.892;2023-04-21T13:28:18;7.35;;;5.28;;
31594;SDS011;18200;48.726;8.892;2023-04-21T13:32:19;8.02;;;4.93;;
31594;SDS011;18200;48.726;8.892;2023-04-21T13:36:20;7.28;;;6.00;;
31594;SDS011;18200;48.726;8.892;2023-04-21T13:40:20;7.32;;;5.32;;
31594;SDS011;18200;48.726;8.892;2023-04-21T13:44:22;7.28;;;4.95;;
31594;SDS011;18200;48.726;8.892;2023-04-21T13:48:22;7.15;;;5.00;;
31594;SDS011;18200;48.726;8.892;2023-04-21T13:52:23;7.90;;;5.53;;
31594;SDS011;18200;48.726;8.892;2023-04-21T13:56:23;7.45;;;4.93;;
31594;SDS011;18200;48.726;8.892;2023-04-21T14:00:24;5.97;;;4.60;;
31594;SDS011;18200;48.726;8.892;2023-04-21T14:04:25;7.43;;;5.32;;
31594;SDS011;18200;48.726;8.892;2023-04-21T14:08:25;6.10;;;4.78;;
31594;SDS011;18200;48.726;8.892;2023-04-21T14:12:25;5.53;;;4.53;;
31594;SDS011;18200;48.726;8.892;2023-04-21T14:16:26;5.28;;;4.28;;
31594;SDS011;18200;48.726;8.892;2023-04-21T14:20:26;6.55;;;3.88;;
31594;SDS011;18200;48.726;8.892;2023-04-21T14:24:27;5.80;;;3.42;;
31594;SDS011;18200;48.726;8.892;2023-04-21T14:28:29;4.50;;;3.75;;
31594;SDS011;18200;48.726;8.892;2023-04-21T14:32:30;6.55;;;3.63;;
31594;SDS011;18200;48.726;8.892;2023-04-21T14:36:30;5.45;;;3.33;;
31594;SDS011;18200;48.726;8.892;2023-04-21T14:40:31;5.95;;;3.58;;
31594;SDS011;18200;48.726;8.892;2023-04-21T14:44:32;6.75;;;3.60;;
31594;SDS011;18200;48.726;8.892;2023-04-21T14:48:34;4.57;;;3.63;;
31594;SDS011;18200;48.726;8.892;2023-04-21T14:52:34;6.03;;;3.50;;
31594;SDS011;18200;48.726;8.892;2023-04-21T14:56:35;3.70;;;2.90;;
31594;SDS011;18200;48.726;8.892;2023-04-21T15:00:36;5.07;;;3.00;;
31594;SDS011;18200;48.726;8.892;2023-04-21T15:04:37;6.57;;;3.30;;
31594;SDS011;18200;48.726;8.892;2023-04-21T15:08:38;2.90;;;2.58;;
31594;SDS011;18200;48.726;8.892;2023-04-21T15:12:38;3.63;;;2.90;;
31594;SDS011;18200;48.726;8.892;2023-04-21T15:16:40;3.72;;;3.20;;
31594;SDS011;18200;48.726;8.892;2023-04-21T15:20:41;4.00;;;2.90;;
31594;SDS011;18200;48.726;8.892;2023-04-21T15:24:44;6.93;;;3.03;;
31594;SDS011;18200;48.726;8.892;2023-04-21T15:28:44;8.23;;;4.00;;
31594;SDS011;18200;48.726;8.892;2023-04-21T15:32:45;7.70;;;4.25;;
31594;SDS011;18200;48.726;8.892;2023-04-21T15:36:45;8.43;;;3.85;;
31594;SDS011;18200;48.726;8.892;2023-04-21T15:40:46;6.95;;;3.90;;
31594;SDS011;18200;48.726;8.892;2023-04-21T15:44:46;5.18;;;3.55;;
31594;SDS011;18200;48.726;8.892;2023-04-21T15:48:47;7.43;;;4.78;;
31594;SDS011;18200;48.726;8.892;2023-04-21T15:52:47;6.55;;;4.55;;
31594;SDS011;18200;48.726;8.892;2023-04-21T15:56:48;7.82;;;5.28;;
31594;SDS011;18200;48.726;8.892;2023-04-21T16:00:48;6.10;;;4.53;;
31594;SDS011;18200;48.726;8.892;2023-04-21T16:04:48;6.35;;;4.00;;
31594;SDS011;18200;48.726;8.892;2023-04-21T16:08:49;3.75;;;3.20;;
31594;SDS011;18200;48.726;8.892;2023-04-21T16:12:49;5.13;;;3.90;;
31594;SDS011;18200;48.726;8.892;2023-04-21T16:16:50;5.38;;;3.92;;
31594;SDS011;18200;48.726;8.892;2023-04-21T16:20:50;5.82;;;3.28;;
31594;SDS011;18200;48.726;8.892;2023-04-21T16:24:51;5.45;;;2.80;;
31594;SDS011;18200;48.726;8.892;2023-04-21T16:28:52;3.95;;;3.05;;
31594;SDS011;18200;48.726;8.892;2023-04-21T16:32:54;5.32;;;3.13;;
31594;SDS011;18200;48.726;8.892;2023-04-21T16:36:54;7.95;;;4.25;;
31594;SDS011;18200;48.726;8.892;2023-04-21T16:40:55;4.30;;;3.47;;
31594;SDS011;18200;48.726;8.892;2023-04-21T16:44:55;6.05;;;3.63;;
31594;SDS011;18200;48.726;8.892;2023-04-21T16:48:57;4.93;;;2.75;;
31594;SDS011;18200;48.726;8.892;2023-04-21T16:52:58;5.13;;;2.80;;
31594;SDS011;18200;48.726;8.892;2023-04-21T16:56:58;3.55;;;3.17;;
31594;SDS011;18200;48.726;8.892;2023-04-21T17:00:58;2.40;;;2.20;;
31594;SDS011;18200;48.726;8.892;2023-04-21T17:04:59;2.25;;;2.00;;
31594;SDS011;18200;48.726;8.892;2023-04-21T17:09:00;3.38;;;1.92;;
31594;SDS011;18200;48.726;8.892;2023-04-21T17:13:00;4.30;;;2.38;;
31594;SDS011;18200;48.726;8.892;2023-04-21T17:17:01;4.30;;;2.20;;
31594;SDS011;18200;48.726;8.892;2023-04-21T17:21:02;3.45;;;2.58;;
31594;SDS011;18200;48.726;8.892;2023-04-21T17:25:05;4.78;;;1.90;;
31594;SDS011;18200;48.726;8.892;2023-04-21T17:29:06;3.67;;;1.75;;
31594;SDS011;18200;48.726;8.892;2023-04-21T17:33:10;2.67;;;2.00;;
31594;SDS011;18200;48.726;8.892;2023-04-21T17:37:10;3.75;;;1.80;;
31594;SDS011;18200;48.726;8.892;2023-04-21T17:41:11;4.65;;;1.58;;
31594;SDS011;18200;48.726;8.892;2023-04-21T17:45:11;2.63;;;1.30;;
31594;SDS011;18200;48.726;8.892;2023-04-21T17:49:11;4.47;;;1.35;;
31594;SDS011;18200;48.726;8.892;2023-04-21T17:53:12;3.42;;;1.33;;
31594;SDS011;18200;48.726;8.892;2023-04-21T17:57:12;1.60;;;1.23;;
31594;SDS011;18200;48.726;8.892;2023-04-21T18:01:12;3.33;;;1.83;;
31594;SDS011;18200;48.726;8.892;2023-04-21T18:05:13;3.33;;;2.20;;
31594;SDS011;18200;48.726;8.892;2023-04-21T18:09:14;1.40;;;1.30;;
31594;SDS011;18200;48.726;8.892;2023-04-21T18:13:15;3.45;;;1.58;;
31594;SDS011;18200;48.726;8.892;2023-04-21T18:17:15;4.28;;;2.40;;
31594;SDS011;18200;48.726;8.892;2023-04-21T18:21:16;4.22;;;1.63;;
31594;SDS011;18200;48.726;8.892;2023-04-21T18:25:16;3.90;;;2.47;;
31594;SDS011;18200;48.726;8.892;2023-04-21T18:29:17;7.25;;;3.10;;
31594;SDS011;18200;48.726;8.892;2023-04-21T18:33:18;10.30;;;5.25;;
31594;SDS011;18200;48.726;8.892;2023-04-21T18:37:19;8.35;;;4.55;;
31594;SDS011;18200;48.726;8.892;2023-04-21T18:41:19;7.22;;;5.35;;
31594;SDS011;18200;48.726;8.892;2023-04-21T18:45:19;10.07;;;4.28;;
31594;SDS011;18200;48.726;8.892;2023-04-21T18:49:20;9.23;;;3.58;;
31594;SDS011;18200;48.726;8.892;2023-04-21T18:53:20;5.80;;;3.47;;
31594;SDS011;18200;48.726;8.892;2023-04-21T18:57:20;7.25;;;3.28;;
31594;SDS011;18200;48.726;8.892;2023-04-21T19:01:21;5.57;;;3.08;;
31594;SDS011;18200;48.726;8.892;2023-04-21T19:05:22;7.13;;;3.05;;
31594;SDS011;18200;48.726;8.892;2023-04-21T19:09:22;10.02;;;3.92;;
31594;SDS011;18200;48.726;8.892;2023-04-21T19:13:22;13.35;;;6.00;;
31594;SDS011;18200;48.726;8.892;2023-04-21T19:17:23;13.30;;;7.43;;
31594;SDS011;18200;48.726;8.892;2023-04-21T19:21:23;10.90;;;7.00;;
31594;SDS011;18200;48.726;8.892;2023-04-21T19:25:24;12.10;;;5.28;;
31594;SDS011;18200;48.726;8.892;2023-04-21T19:29:24;8.98;;;5.05;;
31594;SDS011;18200;48.726;8.892;2023-04-21T19:33:24;9.88;;;5.50;;
31594;SDS011;18200;48.726;8.892;2023-04-21T19:37:25;8.60;;;4.50;;
31594;SDS011;18200;48.726;8.892;2023-04-21T19:41:26;8.73;;;4.30;;
31594;SDS011;18200;48.726;8.892;2023-04-21T19:45:26;8.80;;;4.30;;
31594;SDS011;18200;48.726;8.892;2023-04-21T19:49:26;7.30;;;3.45;;
31594;SDS011;18200;48.726;8.892;2023-04-21T19:53:27;4.45;;;2.97;;
31594;SDS011;18200;48.726;8.892;2023-04-21T19:57:28;7.10;;;3.90;;
31594;SDS011;18200;48.726;8.892;2023-04-21T20:01:28;8.95;;;3.60;;
31594;SDS011;18200;48.726;8.892;2023-04-21T20:05:29;10.45;;;4.25;;
31594;SDS011;18200;48.726;8.892;2023-04-21T20:09:29;12.65;;;7.18;;
31594;SDS011;18200;48.726;8.892;2023-04-21T20:13:30;18.95;;;8.80;;
31594;SDS011;18200;48.726;8.892;2023-04-21T20:17:30;31.73;;;14.40;;
31594;SDS011;18200;48.726;8.892;2023-04-21T20:21:31;20.80;;;10.10;;
31594;SDS011;18200;48.726;8.892;2023-04-21T20:25:32;11.32;;;6.90;;
31594;SDS011;18200;48.726;8.892;2023-04-21T20:29:32;14.25;;;6.57;;
31594;SDS011;18200;48.726;8.892;2023-04-21T20:33:33;10.30;;;5.35;;
31594;SDS011;18200;48.726;8.892;2023-04-21T20:37:33;9.25;;;5.70;;
31594;SDS011;18200;48.726;8.892;2023-04-21T20:41:34;8.88;;;5.50;;
31594;SDS011;18200;48.726;8.892;2023-04-21T20:45:35;9.63;;;5.45;;
31594;SDS011;18200;48.726;8.892;2023-04-21T20:49:35;10.68;;;6.00;;
31594;SDS011;18200;48.726;8.892;2023-04-21T20:53:36;9.18;;;5.57;;
31594;SDS011;18200;48.726;8.892;2023-04-21T20:57:36;10.90;;;7.03;;
31594;SDS011;18200;48.726;8.892;2023-04-21T21:01:36;12.80;;;5.97;;
31594;SDS011;18200;48.726;8.892;2023-04-21T21:05:40;12.38;;;7.07;;
31594;SDS011;18200;48.726;8.892;2023-04-21T21:09:41;8.77;;;5.55;;
31594;SDS011;18200;48.726;8.892;2023-04-21T21:13:41;7.82;;;4.82;;
31594;SDS011;18200;48.726;8.892;2023-04-21T21:17:41;12.23;;;5.95;;
31594;SDS011;18200;48.726;8.892;2023-04-21T21:21:42;10.05;;;6.00;;
31594;SDS011;18200;48.726;8.892;2023-04-21T21:25:42;11.23;;;6.15;;
31594;SDS011;18200;48.726;8.892;2023-04-21T21:29:43;12.00;;;5.20;;
31594;SDS011;18200;48.726;8.892;2023-04-21T21:33:43;7.40;;;4.53;;
31594;SDS011;18200;48.726;8.892;2023-04-21T21:37:43;8.15;;;5.05;;
31594;SDS011;18200;48.726;8.892;2023-04-21T21:41:44;10.07;;;5.57;;
31594;SDS011;18200;48.726;8.892;2023-04-21T21:45:44;9.95;;;6.60;;
31594;SDS011;18200;48.726;8.892;2023-04-21T21:49:44;15.45;;;5.57;;
31594;SDS011;18200;48.726;8.892;2023-04-21T21:53:45;11.07;;;5.50;;
31594;SDS011;18200;48.726;8.892;2023-04-21T21:57:45;7.53;;;4.90;;
31594;SDS011;18200;48.726;8.892;2023-04-21T22:01:46;10.60;;;5.20;;
31594;SDS011;18200;48.726;8.892;2023-04-21T22:05:47;8.70;;;4.18;;
31594;SDS011;18200;48.726;8.892;2023-04-21T22:09:47;17.13;;;5.25;;
31594;SDS011;18200;48.726;8.892;2023-04-21T22:13:48;8.07;;;4.82;;
31594;SDS011;18200;48.726;8.892;2023-04-21T22:17:48;9.45;;;4.50;;
31594;SDS011;18200;48.726;8.892;2023-04-21T22:21:48;10.18;;;6.03;;
31594;SDS011;18200;48.726;8.892;2023-04-21T22:25:49;11.32;;;5.28;;
31594;SDS011;18200;48.726;8.892;2023-04-21T22:29:50;10.50;;;5.50;;
31594;SDS011;18200;48.726;8.892;2023-04-21T22:33:50;12.43;;;6.53;;
31594;SDS011;18200;48.726;8.892;2023-04-21T22:37:51;11.85;;;6.97;;
31594;SDS011;18200;48.726;8.892;2023-04-21T22:41:51;11.15;;;6.10;;
31594;SDS011;18200;48.726;8.892;2023-04-21T22:45:52;10.20;;;5.68;;
31594;SDS011;18200;48.726;8.892;2023-04-21T22:49:52;12.35;;;5.50;;
31594;SDS011;18200;48.726;8.892;2023-04-21T22:53:54;7.78;;;5.45;;
31594;SDS011;18200;48.726;8.892;2023-04-21T22:57:55;9.07;;;4.53;;
31594;SDS011;18200;48.726;8.892;2023-04-21T23:01:55;4.95;;;3.15;;
31594;SDS011;18200;48.726;8.892;2023-04-21T23:05:56;6.45;;;3.40;;
31594;SDS011;18200;48.726;8.892;2023-04-21T23:09:56;5.00;;;3.40;;
31594;SDS011;18200;48.726;8.892;2023-04-21T23:13:57;9.05;;;4.38;;
31594;SDS011;18200;48.726;8.892;2023-04-21T23:17:57;4.20;;;3.60;;
31594;SDS011;18200;48.726;8.892;2023-04-21T23:21:57;7.65;;;3.78;;
31594;SDS011;18200;48.726;8.892;2023-04-21T23:25:58;6.75;;;3.90;;
31594;SDS011;18200;48.726;8.892;2023-04-21T23:29:58;5.45;;;3.58;;
31594;SDS011;18200;48.726;8.892;2023-04-21T23:33:59;8.75;;;4.00;;
31594;SDS011;18200;48.726;8.892;2023-04-21T23:37:59;5.60;;;3.10;;
31594;SDS011;18200;48.726;8.892;2023-04-21T23:41:59;6.22;;;4.10;;
31594;SDS011;18200;48.726;8.892;2023-04-21T23:46:01;9.35;;;5.50;;
31594;SDS011;18200;48.726;8.892;2023-04-21T23:50:02;9.45;;;5.72;;
31594;SDS011;18200;48.726;8.892;2023-04-21T23:54:03;8.45;;;5.03;;
31594;SDS011;18200;48.726;8.892;2023-04-21T23:58:03;7.03;;;4.60;;
